Strona główna
METAR-TAF:

METAR-TAF

Lotnisko :

Port lotniczy Mount Pleasant

Stanley, Falklandy

Szerokość geograficzna: 51-49S, Długość geograficzna: 058-27W, wysokość: 74 m

Aktualna obserwacja pogody

Raport powstał 1 godzina i 0 minut temu, godzina 09:50 UTC
Wiatr 17 kt od północny zachód
Temperatura 6°C
Wilgotność 70%
Ciśnienie 1011 hPa
Widzialność 10 km lub więcej

METAR: EGYP 200950Z AUTO 32017KT 9999 // NCD 06/01 Q1011

czas: 07:50 (10:50 UTC)

Prognoza

Raport powstał 3 godziny i 32 minut temu, godzina 07:18 UTC
Prognoza ważna od 20 godzina 09 UTC do 21 godzina 03 UTC
Wiatr 23 kt od północny zachód
Widzialność 10 km lub więcej
Brak chmur poniżej 1500 m i brak chmur cumulonimbus
Prawdopodobieństwo 40% :
Przejściowo
od 20 godzina 09 UTC do 20 godzina 15 UTC
Wiatr 25 kt od północny zachód w porywach dochodzący do 35 kt
Stopniowe zmiany
od 20 godzina 19 UTC do 20 godzina 22 UTC
Wiatr 15 kt od północno-północny zachód

TAF: EGYP 200718Z 2009/2103 31023KT CAVOK PROB40 TEMPO 2009/2015 32025G35KT BECMG 2019/2022 34015KT

Obserwacja i prognoza pogody dla ponad 4000 lotnisk (raport METAR i TAF).

Dostępne stacje oznaczono żółtymi i czerwonymi punktami na mapie.

Najedź kursorem aby zobaczyć nazwę stacji.

Kliknij aby zobaczyć obserwacje i prognozy pogody.

Aby zmienić mapę: kliknij na zielony przycisk z czarnym krzyżykiem, aby powiększyć; na zielony przycisk z myślnikiem, aby pomniejszyć; na zielone strzałki, aby przejść do map sąsiednich.


METAR-TAF: